sensor_id;sensor_type;location;lat;lon;timestamp;pressure;altitude;pressure_sealevel;temperature;humidity
18022;BME280;9136;48.822;7.966;2023-01-15T00:02:27;98991.34;;;9.66;100.00
18022;BME280;9136;48.822;7.966;2023-01-15T00:05:16;99006.53;;;9.77;100.00
18022;BME280;9136;48.822;7.966;2023-01-15T00:08:04;98991.41;;;9.82;100.00
18022;BME280;9136;48.822;7.966;2023-01-15T00:10:52;98978.63;;;9.76;100.00
18022;BME280;9136;48.822;7.966;2023-01-15T00:13:41;98964.72;;;9.74;100.00
18022;BME280;9136;48.822;7.966;2023-01-15T00:16:31;98984.94;;;9.89;100.00
18022;BME280;9136;48.822;7.966;2023-01-15T00:19:19;98966.56;;;9.72;100.00
18022;BME280;9136;48.822;7.966;2023-01-15T00:22:07;98952.63;;;9.89;100.00
18022;BME280;9136;48.822;7.966;2023-01-15T00:24:54;98958.31;;;9.80;100.00
18022;BME280;9136;48.822;7.966;2023-01-15T00:28:00;98935.19;;;9.88;100.00
18022;BME280;9136;48.822;7.966;2023-01-15T00:30:48;98956.78;;;9.93;100.00
18022;BME280;9136;48.822;7.966;2023-01-15T00:33:37;98961.09;;;9.94;100.00
18022;BME280;9136;48.822;7.966;2023-01-15T00:36:24;98961.56;;;10.02;100.00
18022;BME280;9136;48.822;7.966;2023-01-15T00:39:12;98951.41;;;9.96;100.00
18022;BME280;9136;48.822;7.966;2023-01-15T00:42:00;98943.81;;;9.90;100.00
18022;BME280;9136;48.822;7.966;2023-01-15T00:44:49;98955.84;;;9.94;100.00
18022;BME280;9136;48.822;7.966;2023-01-15T00:47:37;98930.25;;;9.82;100.00
18022;BME280;9136;48.822;7.966;2023-01-15T00:50:27;98936.59;;;9.95;100.00
18022;BME280;9136;48.822;7.966;2023-01-15T00:53:15;98965.66;;;10.08;100.00
18022;BME280;9136;48.822;7.966;2023-01-15T00:56:05;98963.19;;;10.04;100.00
18022;BME280;9136;48.822;7.966;2023-01-15T00:58:55;98896.06;;;9.83;100.00
18022;BME280;9136;48.822;7.966;2023-01-15T01:01:45;98905.88;;;9.80;100.00
18022;BME280;9136;48.822;7.966;2023-01-15T01:04:34;98902.88;;;9.87;100.00
18022;BME280;9136;48.822;7.966;2023-01-15T01:07:23;98936.25;;;10.01;100.00
18022;BME280;9136;48.822;7.966;2023-01-15T01:10:11;98911.81;;;9.83;100.00
18022;BME280;9136;48.822;7.966;2023-01-15T01:12:59;98917.81;;;10.02;100.00
18022;BME280;9136;48.822;7.966;2023-01-15T01:15:47;98922.13;;;10.03;100.00
18022;BME280;9136;48.822;7.966;2023-01-15T01:18:35;98919.66;;;10.00;100.00
18022;BME280;9136;48.822;7.966;2023-01-15T01:21:23;98918.44;;;9.90;100.00
18022;BME280;9136;48.822;7.966;2023-01-15T01:24:16;98909.00;;;10.03;100.00
18022;BME280;9136;48.822;7.966;2023-01-15T01:27:04;98919.50;;;10.03;100.00
18022;BME280;9136;48.822;7.966;2023-01-15T01:29:52;98908.97;;;10.05;100.00
18022;BME280;9136;48.822;7.966;2023-01-15T01:32:43;98921.22;;;10.04;100.00
18022;BME280;9136;48.822;7.966;2023-01-15T01:35:32;98868.97;;;10.00;100.00
18022;BME280;9136;48.822;7.966;2023-01-15T01:38:20;98873.78;;;9.92;100.00
18022;BME280;9136;48.822;7.966;2023-01-15T01:41:10;98893.53;;;9.99;100.00
18022;BME280;9136;48.822;7.966;2023-01-15T01:43:59;98898.59;;;10.02;100.00
18022;BME280;9136;48.822;7.966;2023-01-15T01:46:49;98869.22;;;9.95;100.00
18022;BME280;9136;48.822;7.966;2023-01-15T01:49:38;98886.31;;;10.02;100.00
18022;BME280;9136;48.822;7.966;2023-01-15T01:52:31;98898.56;;;10.19;100.00
18022;BME280;9136;48.822;7.966;2023-01-15T01:55:22;98887.81;;;10.08;100.00
18022;BME280;9136;48.822;7.966;2023-01-15T01:58:12;98890.41;;;10.08;100.00
18022;BME280;9136;48.822;7.966;2023-01-15T02:01:01;98870.38;;;9.90;100.00
18022;BME280;9136;48.822;7.966;2023-01-15T02:03:49;98886.41;;;10.01;100.00
18022;BME280;9136;48.822;7.966;2023-01-15T02:06:38;98876.53;;;10.06;100.00
18022;BME280;9136;48.822;7.966;2023-01-15T02:09:29;98869.91;;;9.99;100.00
18022;BME280;9136;48.822;7.966;2023-01-15T02:12:22;98866.28;;;10.01;100.00
18022;BME280;9136;48.822;7.966;2023-01-15T02:15:17;98880.59;;;10.12;100.00
18022;BME280;9136;48.822;7.966;2023-01-15T02:18:11;98863.72;;;10.00;100.00
18022;BME280;9136;48.822;7.966;2023-01-15T02:21:07;98844.41;;;9.85;100.00
18022;BME280;9136;48.822;7.966;2023-01-15T02:24:04;98847.09;;;9.84;100.00
18022;BME280;9136;48.822;7.966;2023-01-15T02:27:10;98834.69;;;9.87;100.00
18022;BME280;9136;48.822;7.966;2023-01-15T02:30:03;98869.16;;;9.97;100.00
18022;BME280;9136;48.822;7.966;2023-01-15T02:32:56;98849.94;;;9.96;100.00
18022;BME280;9136;48.822;7.966;2023-01-15T02:35:48;98834.81;;;9.84;100.00
18022;BME280;9136;48.822;7.966;2023-01-15T02:38:40;98842.47;;;9.89;100.00
18022;BME280;9136;48.822;7.966;2023-01-15T02:41:33;98850.53;;;10.01;100.00
18022;BME280;9136;48.822;7.966;2023-01-15T02:44:25;98826.16;;;9.99;100.00
18022;BME280;9136;48.822;7.966;2023-01-15T02:47:17;98803.41;;;10.00;100.00
18022;BME280;9136;48.822;7.966;2023-01-15T02:50:09;98807.63;;;10.02;100.00
18022;BME280;9136;48.822;7.966;2023-01-15T02:53:02;98841.88;;;10.17;100.00
18022;BME280;9136;48.822;7.966;2023-01-15T02:55:56;98819.75;;;10.21;100.00
18022;BME280;9136;48.822;7.966;2023-01-15T02:58:47;98795.81;;;10.11;100.00
18022;BME280;9136;48.822;7.966;2023-01-15T03:01:43;98805.50;;;10.26;100.00
18022;BME280;9136;48.822;7.966;2023-01-15T03:04:36;98824.31;;;10.35;100.00
18022;BME280;9136;48.822;7.966;2023-01-15T03:07:33;98818.81;;;10.39;100.00
18022;BME280;9136;48.822;7.966;2023-01-15T03:10:30;98829.94;;;10.44;100.00
18022;BME280;9136;48.822;7.966;2023-01-15T03:13:28;98788.16;;;10.40;100.00
18022;BME280;9136;48.822;7.966;2023-01-15T03:16:23;98806.47;;;10.57;100.00
18022;BME280;9136;48.822;7.966;2023-01-15T03:19:25;98795.94;;;10.41;100.00
18022;BME280;9136;48.822;7.966;2023-01-15T03:22:18;98821.13;;;10.45;100.00
18022;BME280;9136;48.822;7.966;2023-01-15T03:25:10;98837.72;;;10.46;100.00
18022;BME280;9136;48.822;7.966;2023-01-15T03:28:02;98823.47;;;10.50;100.00
18022;BME280;9136;48.822;7.966;2023-01-15T03:30:50;98848.97;;;10.48;100.00
18022;BME280;9136;48.822;7.966;2023-01-15T03:33:41;98862.84;;;10.50;100.00
18022;BME280;9136;48.822;7.966;2023-01-15T03:36:30;98866.81;;;10.25;100.00
18022;BME280;9136;48.822;7.966;2023-01-15T03:39:18;98902.53;;;10.28;100.00
18022;BME280;9136;48.822;7.966;2023-01-15T03:42:19;98908.41;;;9.98;100.00
18022;BME280;9136;48.822;7.966;2023-01-15T03:45:16;98933.09;;;9.77;100.00
18022;BME280;9136;48.822;7.966;2023-01-15T03:48:10;98934.47;;;9.13;100.00
18022;BME280;9136;48.822;7.966;2023-01-15T03:51:07;98942.19;;;8.79;100.00
18022;BME280;9136;48.822;7.966;2023-01-15T03:54:01;98932.63;;;8.40;100.00
18022;BME280;9136;48.822;7.966;2023-01-15T03:56:55;98946.47;;;8.22;100.00
18022;BME280;9136;48.822;7.966;2023-01-15T03:59:49;98958.41;;;8.07;100.00
18022;BME280;9136;48.822;7.966;2023-01-15T04:02:38;98967.25;;;8.04;100.00
18022;BME280;9136;48.822;7.966;2023-01-15T04:05:27;98956.66;;;7.87;100.00
18022;BME280;9136;48.822;7.966;2023-01-15T04:08:16;98959.41;;;7.84;100.00
18022;BME280;9136;48.822;7.966;2023-01-15T04:11:06;98967.50;;;7.78;100.00
18022;BME280;9136;48.822;7.966;2023-01-15T04:13:54;98947.09;;;7.66;100.00
18022;BME280;9136;48.822;7.966;2023-01-15T04:16:41;98983.16;;;7.78;100.00
18022;BME280;9136;48.822;7.966;2023-01-15T04:19:30;98973.94;;;7.69;100.00
18022;BME280;9136;48.822;7.966;2023-01-15T04:22:18;98951.84;;;7.56;100.00
18022;BME280;9136;48.822;7.966;2023-01-15T04:25:09;98983.84;;;7.61;100.00
18022;BME280;9136;48.822;7.966;2023-01-15T04:27:58;98994.31;;;7.61;100.00
18022;BME280;9136;48.822;7.966;2023-01-15T04:30:46;98984.34;;;7.49;100.00
18022;BME280;9136;48.822;7.966;2023-01-15T04:33:34;98976.88;;;7.40;100.00
18022;BME280;9136;48.822;7.966;2023-01-15T04:36:22;98972.94;;;7.30;100.00
18022;BME280;9136;48.822;7.966;2023-01-15T04:39:10;98995.47;;;7.32;100.00
18022;BME280;9136;48.822;7.966;2023-01-15T04:41:58;99007.50;;;7.36;100.00
18022;BME280;9136;48.822;7.966;2023-01-15T04:45:06;99021.94;;;7.23;100.00
18022;BME280;9136;48.822;7.966;2023-01-15T04:47:54;99050.78;;;7.20;100.00
18022;BME280;9136;48.822;7.966;2023-01-15T04:50:42;99022.66;;;7.05;100.00
18022;BME280;9136;48.822;7.966;2023-01-15T04:53:30;99048.53;;;7.11;100.00
18022;BME280;9136;48.822;7.966;2023-01-15T04:56:18;99046.31;;;7.00;100.00
18022;BME280;9136;48.822;7.966;2023-01-15T04:59:07;99051.31;;;7.06;100.00
18022;BME280;9136;48.822;7.966;2023-01-15T05:01:56;99051.19;;;7.09;100.00
18022;BME280;9136;48.822;7.966;2023-01-15T05:04:44;99043.28;;;7.11;100.00
18022;BME280;9136;48.822;7.966;2023-01-15T05:07:32;99055.72;;;7.04;100.00
18022;BME280;9136;48.822;7.966;2023-01-15T05:10:20;99075.22;;;6.96;100.00
18022;BME280;9136;48.822;7.966;2023-01-15T05:13:08;99061.72;;;6.83;100.00
18022;BME280;9136;48.822;7.966;2023-01-15T05:15:56;99066.16;;;6.81;100.00
18022;BME280;9136;48.822;7.966;2023-01-15T05:18:46;99049.31;;;6.66;100.00
18022;BME280;9136;48.822;7.966;2023-01-15T05:21:36;99090.09;;;6.69;100.00
18022;BME280;9136;48.822;7.966;2023-01-15T05:24:26;99071.38;;;6.56;100.00
18022;BME280;9136;48.822;7.966;2023-01-15T05:27:14;99085.13;;;6.61;100.00
18022;BME280;9136;48.822;7.966;2023-01-15T05:30:02;99079.44;;;6.50;100.00
18022;BME280;9136;48.822;7.966;2023-01-15T05:32:50;99064.22;;;6.38;100.00
18022;BME280;9136;48.822;7.966;2023-01-15T05:35:39;99066.75;;;6.39;100.00
18022;BME280;9136;48.822;7.966;2023-01-15T05:38:27;99090.06;;;6.44;100.00
18022;BME280;9136;48.822;7.966;2023-01-15T05:41:17;99099.72;;;6.42;100.00
18022;BME280;9136;48.822;7.966;2023-01-15T05:44:24;99081.75;;;6.32;100.00
18022;BME280;9136;48.822;7.966;2023-01-15T05:47:12;99059.63;;;6.19;100.00
18022;BME280;9136;48.822;7.966;2023-01-15T05:50:00;99059.91;;;6.10;100.00
18022;BME280;9136;48.822;7.966;2023-01-15T05:52:49;99084.88;;;6.17;100.00
18022;BME280;9136;48.822;7.966;2023-01-15T05:55:37;99093.56;;;6.18;100.00
18022;BME280;9136;48.822;7.966;2023-01-15T05:58:25;99107.47;;;6.18;100.00
18022;BME280;9136;48.822;7.966;2023-01-15T06:01:13;99106.06;;;6.08;100.00
18022;BME280;9136;48.822;7.966;2023-01-15T06:04:02;99121.03;;;6.01;100.00
18022;BME280;9136;48.822;7.966;2023-01-15T06:06:52;99143.53;;;6.04;100.00
18022;BME280;9136;48.822;7.966;2023-01-15T06:09:41;99121.25;;;5.94;100.00
18022;BME280;9136;48.822;7.966;2023-01-15T06:12:31;99148.00;;;6.00;100.00
18022;BME280;9136;48.822;7.966;2023-01-15T06:15:19;99123.91;;;5.92;100.00
18022;BME280;9136;48.822;7.966;2023-01-15T06:18:07;99126.53;;;5.92;100.00
18022;BME280;9136;48.822;7.966;2023-01-15T06:20:55;99136.47;;;5.80;100.00
18022;BME280;9136;48.822;7.966;2023-01-15T06:23:43;99125.06;;;5.82;100.00
18022;BME280;9136;48.822;7.966;2023-01-15T06:26:33;99165.53;;;5.95;100.00
18022;BME280;9136;48.822;7.966;2023-01-15T06:29:21;99174.44;;;5.87;100.00
18022;BME280;9136;48.822;7.966;2023-01-15T06:32:09;99183.97;;;5.88;100.00
18022;BME280;9136;48.822;7.966;2023-01-15T06:34:57;99202.00;;;5.95;100.00
18022;BME280;9136;48.822;7.966;2023-01-15T06:37:45;99205.72;;;5.87;100.00
18022;BME280;9136;48.822;7.966;2023-01-15T06:40:33;99203.09;;;5.87;100.00
18022;BME280;9136;48.822;7.966;2023-01-15T06:43:22;99228.22;;;5.91;100.00
18022;BME280;9136;48.822;7.966;2023-01-15T06:46:28;99228.41;;;5.83;100.00
18022;BME280;9136;48.822;7.966;2023-01-15T06:49:34;99218.22;;;5.75;100.00
18022;BME280;9136;48.822;7.966;2023-01-15T06:52:23;99217.63;;;5.66;100.00
18022;BME280;9136;48.822;7.966;2023-01-15T06:55:11;99227.09;;;5.68;100.00
18022;BME280;9136;48.822;7.966;2023-01-15T06:58:01;99235.66;;;5.73;100.00
18022;BME280;9136;48.822;7.966;2023-01-15T07:00:51;99238.66;;;5.60;100.00
18022;BME280;9136;48.822;7.966;2023-01-15T07:03:41;99268.97;;;5.62;100.00
18022;BME280;9136;48.822;7.966;2023-01-15T07:06:30;99233.06;;;5.42;100.00
18022;BME280;9136;48.822;7.966;2023-01-15T07:09:18;99240.53;;;5.55;100.00
18022;BME280;9136;48.822;7.966;2023-01-15T07:12:06;99253.94;;;5.41;100.00
18022;BME280;9136;48.822;7.966;2023-01-15T07:14:54;99243.53;;;5.41;100.00
18022;BME280;9136;48.822;7.966;2023-01-15T07:17:43;99253.69;;;5.49;100.00
18022;BME280;9136;48.822;7.966;2023-01-15T07:20:31;99263.16;;;5.53;100.00
18022;BME280;9136;48.822;7.966;2023-01-15T07:23:19;99278.69;;;5.56;100.00
18022;BME280;9136;48.822;7.966;2023-01-15T07:26:08;99276.38;;;5.45;100.00
18022;BME280;9136;48.822;7.966;2023-01-15T07:28:58;99298.94;;;5.46;100.00
18022;BME280;9136;48.822;7.966;2023-01-15T07:31:45;99301.47;;;5.47;100.00
18022;BME280;9136;48.822;7.966;2023-01-15T07:34:35;99286.34;;;5.29;100.00
18022;BME280;9136;48.822;7.966;2023-01-15T07:37:23;99321.47;;;5.47;100.00
18022;BME280;9136;48.822;7.966;2023-01-15T07:40:11;99309.81;;;5.28;100.00
18022;BME280;9136;48.822;7.966;2023-01-15T07:42:59;99331.41;;;5.33;100.00
18022;BME280;9136;48.822;7.966;2023-01-15T07:46:04;99333.97;;;5.34;100.00
18022;BME280;9136;48.822;7.966;2023-01-15T07:49:12;99329.25;;;5.14;100.00
18022;BME280;9136;48.822;7.966;2023-01-15T07:52:22;99342.84;;;5.26;100.00
18022;BME280;9136;48.822;7.966;2023-01-15T07:55:10;99328.22;;;5.20;100.00
18022;BME280;9136;48.822;7.966;2023-01-15T07:57:59;99321.63;;;5.07;100.00
18022;BME280;9136;48.822;7.966;2023-01-15T08:00:47;99311.41;;;4.99;100.00
18022;BME280;9136;48.822;7.966;2023-01-15T08:03:35;99361.91;;;5.28;100.00
18022;BME280;9136;48.822;7.966;2023-01-15T08:06:23;99348.25;;;5.18;100.00
18022;BME280;9136;48.822;7.966;2023-01-15T08:09:14;99364.91;;;5.12;100.00
18022;BME280;9136;48.822;7.966;2023-01-15T08:12:03;99382.34;;;5.07;100.00
18022;BME280;9136;48.822;7.966;2023-01-15T08:15:09;99363.50;;;4.98;100.00
18022;BME280;9136;48.822;7.966;2023-01-15T08:18:00;99380.94;;;4.94;100.00
18022;BME280;9136;48.822;7.966;2023-01-15T08:20:47;99411.06;;;5.04;100.00
18022;BME280;9136;48.822;7.966;2023-01-15T08:23:35;99387.19;;;4.87;100.00
18022;BME280;9136;48.822;7.966;2023-01-15T08:26:25;99405.44;;;4.85;100.00
18022;BME280;9136;48.822;7.966;2023-01-15T08:29:13;99408.72;;;4.92;100.00
18022;BME280;9136;48.822;7.966;2023-01-15T08:32:01;99392.53;;;4.79;100.00
18022;BME280;9136;48.822;7.966;2023-01-15T08:34:49;99392.66;;;4.75;100.00
18022;BME280;9136;48.822;7.966;2023-01-15T08:37:37;99409.91;;;4.79;100.00
18022;BME280;9136;48.822;7.966;2023-01-15T08:40:24;99388.44;;;4.69;100.00
18022;BME280;9136;48.822;7.966;2023-01-15T08:43:14;99378.19;;;4.62;100.00
18022;BME280;9136;48.822;7.966;2023-01-15T08:46:04;99425.59;;;4.76;100.00
18022;BME280;9136;48.822;7.966;2023-01-15T08:48:52;99401.75;;;4.55;100.00
18022;BME280;9136;48.822;7.966;2023-01-15T08:51:40;99422.25;;;4.69;100.00
18022;BME280;9136;48.822;7.966;2023-01-15T08:54:28;99405.09;;;4.60;100.00
18022;BME280;9136;48.822;7.966;2023-01-15T08:57:16;99429.44;;;4.58;100.00
18022;BME280;9136;48.822;7.966;2023-01-15T09:00:07;99426.06;;;4.53;100.00
18022;BME280;9136;48.822;7.966;2023-01-15T09:02:56;99446.69;;;4.62;100.00
18022;BME280;9136;48.822;7.966;2023-01-15T09:05:44;99440.81;;;4.54;100.00
18022;BME280;9136;48.822;7.966;2023-01-15T09:08:32;99465.75;;;4.63;100.00
18022;BME280;9136;48.822;7.966;2023-01-15T09:11:23;99459.78;;;4.57;100.00
18022;BME280;9136;48.822;7.966;2023-01-15T09:14:12;99472.56;;;4.68;100.00
18022;BME280;9136;48.822;7.966;2023-01-15T09:17:02;99461.44;;;4.62;100.00
18022;BME280;9136;48.822;7.966;2023-01-15T09:19:51;99479.53;;;4.68;100.00
18022;BME280;9136;48.822;7.966;2023-01-15T09:22:39;99483.75;;;4.72;100.00
18022;BME280;9136;48.822;7.966;2023-01-15T09:25:27;99509.78;;;4.73;100.00
18022;BME280;9136;48.822;7.966;2023-01-15T09:28:20;99520.00;;;4.81;100.00
18022;BME280;9136;48.822;7.966;2023-01-15T09:31:08;99516.72;;;4.71;100.00
18022;BME280;9136;48.822;7.966;2023-01-15T09:33:58;99550.41;;;4.79;100.00
18022;BME280;9136;48.822;7.966;2023-01-15T09:36:46;99550.19;;;4.46;100.00
18022;BME280;9136;48.822;7.966;2023-01-15T09:39:36;99575.47;;;4.38;100.00
18022;BME280;9136;48.822;7.966;2023-01-15T09:42:33;99548.41;;;3.99;100.00
18022;BME280;9136;48.822;7.966;2023-01-15T09:45:30;99573.63;;;3.92;100.00
18022;BME280;9136;48.822;7.966;2023-01-15T09:48:40;99571.25;;;3.80;100.00
18022;BME280;9136;48.822;7.966;2023-01-15T09:51:59;99561.22;;;3.57;100.00
18022;BME280;9136;48.822;7.966;2023-01-15T09:54:58;99583.66;;;3.60;100.00
18022;BME280;9136;48.822;7.966;2023-01-15T09:57:53;99583.75;;;3.54;100.00
18022;BME280;9136;48.822;7.966;2023-01-15T10:00:45;99575.25;;;3.42;100.00
18022;BME280;9136;48.822;7.966;2023-01-15T10:03:39;99574.31;;;3.47;100.00
18022;BME280;9136;48.822;7.966;2023-01-15T10:06:32;99600.13;;;3.59;100.00
18022;BME280;9136;48.822;7.966;2023-01-15T10:09:27;99591.50;;;3.55;100.00
18022;BME280;9136;48.822;7.966;2023-01-15T10:12:25;99601.97;;;3.52;100.00
18022;BME280;9136;48.822;7.966;2023-01-15T10:15:40;99614.13;;;3.49;100.00
18022;BME280;9136;48.822;7.966;2023-01-15T10:18:35;99639.91;;;3.62;100.00
18022;BME280;9136;48.822;7.966;2023-01-15T10:21:32;99635.63;;;3.60;100.00
18022;BME280;9136;48.822;7.966;2023-01-15T10:24:31;99632.28;;;3.50;100.00
18022;BME280;9136;48.822;7.966;2023-01-15T10:27:38;99658.09;;;3.61;100.00
18022;BME280;9136;48.822;7.966;2023-01-15T10:30:40;99633.97;;;3.53;100.00
18022;BME280;9136;48.822;7.966;2023-01-15T10:33:43;99644.44;;;3.47;100.00
18022;BME280;9136;48.822;7.966;2023-01-15T10:36:39;99636.00;;;3.31;100.00
18022;BME280;9136;48.822;7.966;2023-01-15T10:39:36;99672.03;;;3.54;100.00
18022;BME280;9136;48.822;7.966;2023-01-15T10:42:38;99629.03;;;3.33;100.00
18022;BME280;9136;48.822;7.966;2023-01-15T10:45:32;99674.59;;;3.57;100.00
18022;BME280;9136;48.822;7.966;2023-01-15T10:48:37;99637.50;;;3.47;100.00
18022;BME280;9136;48.822;7.966;2023-01-15T10:51:29;99617.72;;;3.37;100.00
18022;BME280;9136;48.822;7.966;2023-01-15T10:54:25;99631.41;;;3.51;100.00
18022;BME280;9136;48.822;7.966;2023-01-15T10:57:22;99621.06;;;3.47;100.00
18022;BME280;9136;48.822;7.966;2023-01-15T11:04:02;99633.00;;;3.60;100.00
18022;BME280;9136;48.822;7.966;2023-01-15T11:06:52;99631.34;;;3.54;100.00
18022;BME280;9136;48.822;7.966;2023-01-15T11:09:43;99620.19;;;3.49;100.00
18022;BME280;9136;48.822;7.966;2023-01-15T11:12:35;99592.53;;;3.45;100.00
18022;BME280;9136;48.822;7.966;2023-01-15T11:15:44;99615.69;;;3.60;100.00
18022;BME280;9136;48.822;7.966;2023-01-15T11:18:50;99606.22;;;3.58;100.00
18022;BME280;9136;48.822;7.966;2023-01-15T11:21:55;99588.16;;;3.50;100.00
18022;BME280;9136;48.822;7.966;2023-01-15T11:24:49;99601.78;;;3.64;100.00
18022;BME280;9136;48.822;7.966;2023-01-15T11:27:40;99606.94;;;3.67;100.00
18022;BME280;9136;48.822;7.966;2023-01-15T11:30:31;99616.44;;;3.68;100.00
18022;BME280;9136;48.822;7.966;2023-01-15T11:33:24;99632.03;;;3.68;100.00
18022;BME280;9136;48.822;7.966;2023-01-15T11:36:21;99625.97;;;3.66;100.00
18022;BME280;9136;48.822;7.966;2023-01-15T11:39:21;99663.81;;;3.87;100.00
18022;BME280;9136;48.822;7.966;2023-01-15T11:42:15;99645.56;;;3.90;100.00
18022;BME280;9136;48.822;7.966;2023-01-15T11:45:23;99628.16;;;3.97;100.00
18022;BME280;9136;48.822;7.966;2023-01-15T11:48:32;99638.34;;;4.09;100.00
18022;BME280;9136;48.822;7.966;2023-01-15T11:51:41;99628.84;;;4.05;100.00
18022;BME280;9136;48.822;7.966;2023-01-15T11:54:36;99644.41;;;4.08;100.00
18022;BME280;9136;48.822;7.966;2023-01-15T11:57:29;99668.16;;;4.41;100.00
18022;BME280;9136;48.822;7.966;2023-01-15T12:00:20;99643.91;;;4.39;100.00
18022;BME280;9136;48.822;7.966;2023-01-15T12:03:15;99646.34;;;4.49;100.00
18022;BME280;9136;48.822;7.966;2023-01-15T12:06:08;99642.84;;;4.50;100.00
18022;BME280;9136;48.822;7.966;2023-01-15T12:09:05;99634.97;;;4.55;100.00
18022;BME280;9136;48.822;7.966;2023-01-15T12:12:07;99628.41;;;4.82;100.00
18022;BME280;9136;48.822;7.966;2023-01-15T12:15:11;99631.13;;;4.76;100.00
18022;BME280;9136;48.822;7.966;2023-01-15T12:22:08;99634.81;;;5.52;100.00
18022;BME280;9136;48.822;7.966;2023-01-15T12:29:19;99635.56;;;6.67;100.00
18022;BME280;9136;48.822;7.966;2023-01-15T12:36:32;99633.06;;;6.95;100.00
18022;BME280;9136;48.822;7.966;2023-01-15T12:39:44;99628.94;;;6.20;100.00
18022;BME280;9136;48.822;7.966;2023-01-15T12:46:46;99639.28;;;5.45;100.00
18022;BME280;9136;48.822;7.966;2023-01-15T12:49:42;99648.69;;;5.53;100.00
18022;BME280;9136;48.822;7.966;2023-01-15T12:52:42;99629.88;;;5.38;100.00
18022;BME280;9136;48.822;7.966;2023-01-15T12:55:40;99643.81;;;5.36;100.00
18022;BME280;9136;48.822;7.966;2023-01-15T12:58:38;99643.97;;;5.28;100.00
18022;BME280;9136;48.822;7.966;2023-01-15T13:01:33;99623.28;;;5.21;100.00
18022;BME280;9136;48.822;7.966;2023-01-15T13:04:29;99634.44;;;5.27;100.00
18022;BME280;9136;48.822;7.966;2023-01-15T13:07:36;99636.19;;;5.27;100.00
18022;BME280;9136;48.822;7.966;2023-01-15T13:10:32;99658.22;;;5.54;100.00
18022;BME280;9136;48.822;7.966;2023-01-15T13:13:31;99621.19;;;5.38;100.00
18022;BME280;9136;48.822;7.966;2023-01-15T13:16:54;99620.97;;;5.50;100.00
18022;BME280;9136;48.822;7.966;2023-01-15T13:19:56;99617.31;;;5.57;100.00
18022;BME280;9136;48.822;7.966;2023-01-15T13:23:16;99615.84;;;5.84;100.00
18022;BME280;9136;48.822;7.966;2023-01-15T13:26:25;99628.00;;;5.84;100.00
18022;BME280;9136;48.822;7.966;2023-01-15T13:33:28;99618.78;;;5.69;100.00
18022;BME280;9136;48.822;7.966;2023-01-15T13:36:31;99656.81;;;5.78;100.00
18022;BME280;9136;48.822;7.966;2023-01-15T13:39:44;99622.59;;;5.54;100.00
18022;BME280;9136;48.822;7.966;2023-01-15T13:42:59;99625.19;;;5.54;100.00
18022;BME280;9136;48.822;7.966;2023-01-15T13:45:50;99651.13;;;5.59;100.00
18022;BME280;9136;48.822;7.966;2023-01-15T13:48:49;99666.63;;;5.66;100.00
18022;BME280;9136;48.822;7.966;2023-01-15T13:51:38;99643.56;;;5.48;100.00
18022;BME280;9136;48.822;7.966;2023-01-15T13:54:30;99642.84;;;5.40;100.00
18022;BME280;9136;48.822;7.966;2023-01-15T13:57:40;99642.13;;;5.35;100.00
18022;BME280;9136;48.822;7.966;2023-01-15T14:00:38;99657.78;;;5.33;100.00
18022;BME280;9136;48.822;7.966;2023-01-15T14:03:52;99671.44;;;5.44;100.00
18022;BME280;9136;48.822;7.966;2023-01-15T14:06:47;99668.91;;;5.41;100.00
18022;BME280;9136;48.822;7.966;2023-01-15T14:36:21;99657.63;;;5.39;100.00
18022;BME280;9136;48.822;7.966;2023-01-15T14:39:32;99690.28;;;5.56;100.00
18022;BME280;9136;48.822;7.966;2023-01-15T14:42:33;99664.03;;;5.65;100.00
18022;BME280;9136;48.822;7.966;2023-01-15T14:46:24;99641.56;;;5.61;100.00
18022;BME280;9136;48.822;7.966;2023-01-15T14:49:42;99643.16;;;5.66;100.00
18022;BME280;9136;48.822;7.966;2023-01-15T14:56:26;99645.50;;;5.79;100.00
18022;BME280;9136;48.822;7.966;2023-01-15T14:59:38;99662.59;;;5.93;100.00
18022;BME280;9136;48.822;7.966;2023-01-15T15:14:12;99653.34;;;6.16;100.00
18022;BME280;9136;48.822;7.966;2023-01-15T15:21:13;99644.03;;;6.06;100.00
18022;BME280;9136;48.822;7.966;2023-01-15T15:24:34;99626.59;;;6.08;100.00
18022;BME280;9136;48.822;7.966;2023-01-15T15:31:34;99623.25;;;6.02;100.00
18022;BME280;9136;48.822;7.966;2023-01-15T15:34:32;99646.25;;;6.22;100.00
18022;BME280;9136;48.822;7.966;2023-01-15T15:55:53;99606.72;;;6.03;100.00
18022;BME280;9136;48.822;7.966;2023-01-15T15:58:46;99615.63;;;5.95;100.00
